createdAt,value
2023-05-01T00:01:00.279Z,100914.02
2023-05-01T00:03:28.262Z,100911.82
2023-05-01T00:06:05.046Z,100910.41
2023-05-01T00:08:32.810Z,100910.33
2023-05-01T00:11:04.684Z,100909.74
2023-05-01T00:13:32.624Z,100908.65
2023-05-01T00:16:00.409Z,100906.13
2023-05-01T00:18:30.726Z,100906.64
2023-05-01T00:20:58.365Z,100907.80
2023-05-01T00:23:26.229Z,100905.52
2023-05-01T00:25:54.023Z,100907.41
2023-05-01T00:28:21.799Z,100911.03
2023-05-01T00:30:49.485Z,100906.98
2023-05-01T00:33:17.114Z,100908.45
2023-05-01T00:35:45.644Z,100913.42
2023-05-01T00:38:13.439Z,100911.70
2023-05-01T00:40:45.075Z,100914.00
2023-05-01T00:43:13.600Z,100917.89
2023-05-01T00:45:45.553Z,100915.02
2023-05-01T00:48:14.445Z,100913.05
2023-05-01T00:50:44.067Z,100913.70
2023-05-01T00:53:12.465Z,100912.58
2023-05-01T00:55:43.331Z,100914.84
2023-05-01T00:58:12.263Z,100916.15
2023-05-01T01:04:48.188Z,100920.20
2023-05-01T01:08:06.518Z,100916.95
2023-05-01T01:10:49.991Z,100919.04
2023-05-01T01:13:27.925Z,100921.63
2023-05-01T01:16:07.863Z,100919.88
2023-05-01T01:18:43.851Z,100919.73
2023-05-01T01:25:19.524Z,100923.92
2023-05-01T01:28:08.858Z,100919.65
2023-05-01T01:31:14.302Z,100923.83
2023-05-01T01:34:04.676Z,100917.89
2023-05-01T01:36:44.569Z,100919.27
2023-05-01T01:39:33.515Z,100919.02
2023-05-01T01:42:09.834Z,100922.89
2023-05-01T01:45:25.745Z,100924.38
2023-05-01T01:47:56.189Z,100926.33
2023-05-01T01:50:28.626Z,100927.50
2023-05-01T01:53:00.240Z,100927.26
2023-05-01T01:55:33.036Z,100926.52
2023-05-01T01:58:02.903Z,100927.09
2023-05-01T02:00:31.879Z,100925.66
2023-05-01T02:03:01.509Z,100925.29
2023-05-01T02:05:32.022Z,100924.98
2023-05-01T02:08:00.497Z,100925.46
2023-05-01T02:10:30.051Z,100932.06
2023-05-01T02:12:59.158Z,100926.42
2023-05-01T02:15:28.086Z,100930.34
2023-05-01T02:17:56.682Z,100931.00
2023-05-01T02:20:25.002Z,100929.23
2023-05-01T02:22:53.487Z,100931.02
2023-05-01T02:25:22.198Z,100929.95
2023-05-01T02:28:00.253Z,100930.54
2023-05-01T02:30:28.079Z,100929.17
2023-05-01T02:32:57.653Z,100933.55
2023-05-01T02:35:25.394Z,100930.42
2023-05-01T02:37:55.050Z,100932.70
2023-05-01T02:40:22.803Z,100930.29
2023-05-01T02:42:53.122Z,100930.77
2023-05-01T02:45:24.905Z,100930.41
2023-05-01T02:47:57.840Z,100930.04
2023-05-01T02:50:57.187Z,100928.30
2023-05-01T02:53:24.802Z,100930.88
2023-05-01T02:55:52.795Z,100925.72
2023-05-01T02:58:20.909Z,100926.86
2023-05-01T03:00:50.115Z,100925.77
2023-05-01T03:03:18.094Z,100928.02
2023-05-01T03:05:45.903Z,100932.94
2023-05-01T03:08:13.549Z,100933.01
2023-05-01T03:10:44.421Z,100932.21
2023-05-01T03:13:12.477Z,100934.59
2023-05-01T03:15:40.200Z,100936.59
2023-05-01T03:18:08.090Z,100933.29
2023-05-01T03:20:35.776Z,100936.55
2023-05-01T03:23:03.501Z,100929.67
2023-05-01T03:25:31.231Z,100927.81
2023-05-01T03:27:58.997Z,100926.61
2023-05-01T03:30:26.680Z,100929.73
2023-05-01T03:32:55.421Z,100929.96
2023-05-01T03:35:23.213Z,100929.23
2023-05-01T03:37:50.890Z,100926.16
2023-05-01T03:40:19.433Z,100927.23
2023-05-01T03:42:47.039Z,100923.86
2023-05-01T03:45:15.041Z,100927.48
2023-05-01T03:47:42.834Z,100925.74
2023-05-01T03:50:11.213Z,100921.30
2023-05-01T03:52:38.888Z,100924.60
2023-05-01T03:55:07.533Z,100924.86
2023-05-01T03:57:35.134Z,100921.77
2023-05-01T04:00:03.454Z,100919.82
2023-05-01T04:02:31.859Z,100922.72
2023-05-01T04:04:59.782Z,100924.20
2023-05-01T04:07:27.423Z,100927.16
2023-05-01T04:09:55.438Z,100924.83
2023-05-01T04:12:23.444Z,100922.96
2023-05-01T04:14:51.138Z,100922.17
2023-05-01T04:17:18.993Z,100925.30
2023-05-01T04:19:47.975Z,100930.45
2023-05-01T04:22:16.228Z,100924.09
2023-05-01T04:24:43.898Z,100921.71
2023-05-01T04:27:11.678Z,100924.70
2023-05-01T04:29:39.517Z,100925.42
2023-05-01T04:32:08.094Z,100930.66
2023-05-01T04:34:35.802Z,100932.38
2023-05-01T04:37:29.026Z,100932.15
2023-05-01T04:39:56.918Z,100926.59
2023-05-01T04:42:31.151Z,100925.48
2023-05-01T04:45:02.678Z,100926.89
2023-05-01T04:47:30.446Z,100925.86
2023-05-01T04:49:58.370Z,100924.58
2023-05-01T04:59:25.436Z,100921.90
2023-05-01T05:01:53.220Z,100925.02
2023-05-01T05:04:20.855Z,100927.52
2023-05-01T05:07:13.771Z,100926.59
2023-05-01T05:09:41.374Z,100928.16
2023-05-01T05:12:09.214Z,100928.60
2023-05-01T05:14:36.887Z,100931.80
2023-05-01T05:17:04.526Z,100930.78
2023-05-01T05:19:32.322Z,100927.60
2023-05-01T05:22:03.253Z,100924.80
2023-05-01T05:24:31.236Z,100927.65
2023-05-01T05:26:58.965Z,100928.27
2023-05-01T05:29:29.597Z,100933.55
2023-05-01T05:31:58.196Z,100928.22
2023-05-01T05:34:27.564Z,100931.14
2023-05-01T05:36:55.281Z,100933.20
2023-05-01T05:39:23.887Z,100939.33
2023-05-01T05:41:53.886Z,100937.65
2023-05-01T05:44:21.618Z,100940.36
2023-05-01T05:46:49.301Z,100940.04
2023-05-01T05:49:17.043Z,100944.52
2023-05-01T05:51:44.767Z,100941.92
2023-05-01T05:54:13.015Z,100944.41
2023-05-01T06:01:00.890Z,100952.60
2023-05-01T06:03:28.821Z,100948.73
2023-05-01T06:05:56.811Z,100948.58
2023-05-01T06:08:24.611Z,100941.90
2023-05-01T06:10:52.452Z,100945.48
2023-05-01T06:13:20.112Z,100949.31
2023-05-01T06:15:47.852Z,100951.30
2023-05-01T06:18:15.787Z,100952.34
2023-05-01T06:20:43.545Z,100949.66
2023-05-01T06:23:13.597Z,100950.02
2023-05-01T06:25:41.429Z,100952.38
2023-05-01T06:28:09.105Z,100953.80
2023-05-01T06:31:05.544Z,100956.67
2023-05-01T06:33:34.301Z,100956.65
2023-05-01T06:36:02.531Z,100952.50
2023-05-01T06:38:30.153Z,100950.02
2023-05-01T06:40:57.958Z,100951.58
2023-05-01T06:43:30.567Z,100951.12
2023-05-01T06:45:58.295Z,100953.09
2023-05-01T06:48:25.982Z,100950.79
2023-05-01T06:50:53.776Z,100953.42
2023-05-01T06:53:21.588Z,100954.84
2023-05-01T06:55:49.761Z,100956.23
2023-05-01T07:00:50.386Z,100953.33
2023-05-01T07:03:18.415Z,100953.77
2023-05-01T07:05:46.760Z,100950.80
2023-05-01T07:08:14.514Z,100950.33
2023-05-01T07:10:42.573Z,100942.44
2023-05-01T07:13:10.408Z,100946.73
2023-05-01T07:15:38.729Z,100948.75
2023-05-01T07:18:06.534Z,100946.84
2023-05-01T07:20:37.255Z,100949.96
2023-05-01T07:23:07.293Z,100948.29
2023-05-01T07:25:37.785Z,100947.50
2023-05-01T07:28:05.490Z,100946.36
2023-05-01T07:30:33.545Z,100949.63
2023-05-01T07:33:54.113Z,100946.29
2023-05-01T07:36:22.463Z,100945.05
2023-05-01T07:38:50.614Z,100942.95
2023-05-01T07:41:18.360Z,100939.10
2023-05-01T07:43:46.110Z,100949.54
2023-05-01T07:46:13.870Z,100947.09
2023-05-01T07:48:41.658Z,100944.80
2023-05-01T07:51:09.392Z,100943.08
2023-05-01T07:54:16.513Z,100936.34
2023-05-01T07:56:44.534Z,100936.64
2023-05-01T07:59:38.573Z,100934.19
2023-05-01T08:02:06.825Z,100935.02
2023-05-01T08:04:34.604Z,100939.09
2023-05-01T08:07:02.387Z,100933.62
2023-05-01T08:09:30.065Z,100934.68
2023-05-01T08:11:57.888Z,100936.73
2023-05-01T08:14:25.663Z,100940.64
2023-05-01T08:16:55.472Z,100942.42
2023-05-01T08:19:23.748Z,100945.88
2023-05-01T08:21:51.515Z,100944.76
2023-05-01T08:24:19.725Z,100946.44
2023-05-01T08:26:48.831Z,100943.95
2023-05-01T08:30:19.719Z,100944.91
2023-05-01T08:32:48.305Z,100946.81
2023-05-01T08:35:16.129Z,100945.46
2023-05-01T08:37:44.058Z,100943.08
2023-05-01T08:40:12.033Z,100940.68
2023-05-01T08:42:41.577Z,100940.27
2023-05-01T08:45:10.850Z,100947.64
2023-05-01T08:47:40.248Z,100946.13
2023-05-01T08:50:14.322Z,100942.16
2023-05-01T08:52:45.787Z,100940.79
2023-05-01T08:55:16.300Z,100939.73
2023-05-01T08:57:46.575Z,100943.62
2023-05-01T09:00:19.640Z,100937.05
2023-05-01T09:02:49.616Z,100941.16
2023-05-01T09:05:21.531Z,100943.02
2023-05-01T09:07:49.537Z,100943.92
2023-05-01T09:10:18.909Z,100943.09
2023-05-01T09:12:55.364Z,100939.77
2023-05-01T09:15:25.591Z,100938.77
2023-05-01T09:17:54.844Z,100939.52
2023-05-01T09:20:23.180Z,100936.48
2023-05-01T09:26:58.879Z,100932.34
2023-05-01T09:29:47.551Z,100924.80
2023-05-01T09:32:26.262Z,100924.61
2023-05-01T09:34:55.242Z,100913.15
2023-05-01T09:37:35.138Z,100920.22
2023-05-01T09:40:06.511Z,100917.86
2023-05-01T09:43:00.476Z,100917.11
2023-05-01T09:45:28.434Z,100911.93
2023-05-01T09:48:11.132Z,100909.06
2023-05-01T09:50:42.363Z,100905.27
2023-05-01T09:54:07.932Z,100902.83
2023-05-01T09:56:47.688Z,100898.54
2023-05-01T09:59:18.997Z,100899.77
2023-05-01T10:01:49.476Z,100902.87
2023-05-01T10:05:08.715Z,100905.65
2023-05-01T10:07:36.974Z,100902.66
2023-05-01T10:10:22.933Z,100896.98
2023-05-01T10:12:50.844Z,100893.46
2023-05-01T10:15:26.083Z,100891.63
2023-05-01T10:17:55.513Z,100890.34
2023-05-01T10:20:23.444Z,100882.25
2023-05-01T10:22:51.135Z,100883.52
2023-05-01T10:25:20.640Z,100888.88
2023-05-01T10:27:55.472Z,100878.71
2023-05-01T10:30:23.635Z,100873.19
2023-05-01T10:32:52.860Z,100872.23
2023-05-01T10:35:26.288Z,100866.88
2023-05-01T10:38:06.671Z,100863.09
2023-05-01T10:40:43.406Z,100864.09
2023-05-01T10:43:30.145Z,100856.29
2023-05-01T10:46:10.050Z,100857.83
2023-05-01T10:48:37.860Z,100859.14
2023-05-01T10:51:27.760Z,100854.86
2023-05-01T10:54:14.466Z,100856.20
2023-05-01T10:57:24.486Z,100854.55
2023-05-01T11:00:05.172Z,100848.42
2023-05-01T11:02:33.242Z,100842.48
2023-05-01T11:05:01.296Z,100852.39
2023-05-01T11:07:29.687Z,100845.46
2023-05-01T11:10:01.582Z,100843.55
2023-05-01T11:12:51.226Z,100836.99
2023-05-01T11:15:32.971Z,100834.50
2023-05-01T11:18:03.034Z,100829.42
2023-05-01T11:20:37.952Z,100834.13
2023-05-01T11:23:05.766Z,100823.92
2023-05-01T11:25:33.985Z,100826.32
2023-05-01T11:28:06.535Z,100822.13
2023-05-01T11:30:38.286Z,100815.24
2023-05-01T11:33:10.132Z,100809.23
2023-05-01T11:36:29.831Z,100810.00
2023-05-01T11:39:01.915Z,100802.80
2023-05-01T11:41:29.649Z,100808.56
2023-05-01T11:44:00.214Z,100799.33
2023-05-01T11:46:57.018Z,100798.07
2023-05-01T11:49:31.246Z,100793.10
2023-05-01T11:51:59.308Z,100794.56
2023-05-01T11:54:27.297Z,100794.42
2023-05-01T11:57:02.172Z,100785.45
2023-05-01T11:59:30.697Z,100782.63
2023-05-01T12:01:58.504Z,100779.37
2023-05-01T12:04:31.711Z,100779.77
2023-05-01T12:07:02.129Z,100778.72
2023-05-01T12:09:30.283Z,100779.50
2023-05-01T12:12:01.108Z,100775.40
2023-05-01T12:14:28.985Z,100775.04
2023-05-01T12:16:57.658Z,100775.52
2023-05-01T12:19:29.547Z,100774.21
2023-05-01T12:22:07.809Z,100767.67
2023-05-01T12:24:35.550Z,100770.95
2023-05-01T12:27:08.323Z,100763.16
2023-05-01T12:29:42.916Z,100759.60
2023-05-01T12:32:11.115Z,100762.77
2023-05-01T12:34:40.823Z,100760.91
2023-05-01T12:37:09.423Z,100754.01
2023-05-01T12:39:44.615Z,100750.20
2023-05-01T12:42:14.643Z,100752.50
2023-05-01T12:44:43.851Z,100744.35
2023-05-01T12:47:12.989Z,100743.20
2023-05-01T12:49:41.495Z,100745.25
2023-05-01T12:52:09.567Z,100745.23
2023-05-01T12:54:39.533Z,100733.72
2023-05-01T12:57:16.735Z,100724.06
2023-05-01T13:00:47.630Z,100725.88
2023-05-01T13:03:21.332Z,100718.80
2023-05-01T13:05:59.391Z,100711.02
2023-05-01T13:08:32.424Z,100709.98
2023-05-01T13:11:08.999Z,100709.58
2023-05-01T13:13:37.676Z,100704.99
2023-05-01T13:16:06.771Z,100701.16
2023-05-01T13:18:35.022Z,100697.98
2023-05-01T13:21:10.882Z,100693.15
2023-05-01T13:23:39.654Z,100689.88
2023-05-01T13:26:08.747Z,100689.21
2023-05-01T13:28:41.939Z,100685.81
2023-05-01T13:31:14.103Z,100681.22
2023-05-01T13:33:43.503Z,100682.48
2023-05-01T13:36:25.067Z,100673.97
2023-05-01T13:38:56.321Z,100667.66
2023-05-01T13:41:26.327Z,100675.45
2023-05-01T13:43:56.513Z,100669.41
2023-05-01T13:46:29.104Z,100669.17
2023-05-01T13:49:03.441Z,100670.42
2023-05-01T13:51:32.519Z,100665.76
2023-05-01T13:54:01.138Z,100656.13
2023-05-01T13:56:32.434Z,100654.55
2023-05-01T13:59:00.929Z,100657.48
2023-05-01T14:01:30.270Z,100648.39
2023-05-01T14:03:58.181Z,100650.80
2023-05-01T14:06:26.220Z,100650.33
2023-05-01T14:08:58.519Z,100642.57
2023-05-01T14:11:26.320Z,100641.70
2023-05-01T14:13:59.051Z,100638.61
2023-05-01T14:16:28.234Z,100644.26
2023-05-01T14:18:57.670Z,100639.86
2023-05-01T14:21:28.233Z,100634.80
2023-05-01T14:24:05.577Z,100636.79
2023-05-01T14:26:35.232Z,100629.80
2023-05-01T14:29:04.224Z,100622.66
2023-05-01T14:31:32.092Z,100626.08
2023-05-01T14:34:01.812Z,100620.11
2023-05-01T14:36:33.081Z,100617.49
2023-05-01T14:39:02.634Z,100616.41
2023-05-01T14:41:30.492Z,100616.40
2023-05-01T14:43:58.211Z,100613.61
2023-05-01T14:46:34.357Z,100610.44
2023-05-01T14:49:03.162Z,100610.34
2023-05-01T14:51:33.393Z,100612.05
2023-05-01T14:54:01.143Z,100616.02
2023-05-01T14:56:28.852Z,100610.72
2023-05-01T14:58:56.742Z,100604.61
2023-05-01T15:01:24.589Z,100609.38
2023-05-01T15:03:53.427Z,100608.55
2023-05-01T15:06:21.439Z,100606.77
2023-05-01T15:08:49.256Z,100608.25
2023-05-01T15:11:18.686Z,100608.52
2023-05-01T15:13:47.465Z,100609.42
2023-05-01T15:16:15.443Z,100601.46
2023-05-01T15:18:43.151Z,100597.59
2023-05-01T15:21:10.986Z,100597.89
2023-05-01T15:23:40.309Z,100599.26
2023-05-01T15:26:08.016Z,100596.75
2023-05-01T15:28:35.739Z,100585.20
2023-05-01T15:31:03.555Z,100578.63
2023-05-01T15:33:31.559Z,100580.39
2023-05-01T15:35:59.341Z,100575.49
2023-05-01T15:38:28.240Z,100572.83
2023-05-01T15:40:56.789Z,100569.39
2023-05-01T15:43:24.693Z,100567.51
2023-05-01T15:45:52.884Z,100566.95
2023-05-01T15:48:20.920Z,100563.45
2023-05-01T15:50:49.288Z,100561.38
2023-05-01T15:53:17.761Z,100562.98
2023-05-01T15:55:45.374Z,100560.23
2023-05-01T15:58:13.669Z,100567.61
2023-05-01T16:00:41.409Z,100570.23
2023-05-01T16:03:09.872Z,100565.88
2023-05-01T16:05:38.848Z,100566.59
2023-05-01T16:08:07.406Z,100567.10
2023-05-01T16:10:37.430Z,100561.83
2023-05-01T16:13:08.114Z,100563.02
2023-05-01T16:15:36.761Z,100553.95
2023-05-01T16:18:05.309Z,100545.82
2023-05-01T16:20:39.039Z,100542.23
2023-05-01T16:23:07.004Z,100539.27
2023-05-01T16:25:34.727Z,100534.46
2023-05-01T16:28:06.064Z,100529.71
2023-05-01T16:30:33.972Z,100532.02
2023-05-01T16:33:28.077Z,100528.98
2023-05-01T16:35:57.468Z,100528.52
2023-05-01T16:38:26.966Z,100524.89
2023-05-01T16:40:57.138Z,100517.73
2023-05-01T16:43:26.780Z,100514.53
2023-05-01T16:45:54.624Z,100509.98
2023-05-01T16:52:18.372Z,100503.43
2023-05-01T16:54:46.143Z,100500.86
2023-05-01T16:57:14.545Z,100502.31
2023-05-01T16:59:43.542Z,100496.86
2023-05-01T17:02:11.502Z,100499.42
2023-05-01T17:04:39.492Z,100499.48
2023-05-01T17:07:07.529Z,100502.58
2023-05-01T17:09:37.622Z,100501.89
2023-05-01T17:12:06.199Z,100498.56
2023-05-01T17:14:33.985Z,100494.05
2023-05-01T17:17:09.429Z,100494.23
2023-05-01T17:19:39.145Z,100490.66
2023-05-01T17:22:07.656Z,100491.56
2023-05-01T17:24:36.074Z,100489.60
2023-05-01T17:27:03.847Z,100486.96
2023-05-01T17:29:32.012Z,100491.00
2023-05-01T17:31:59.732Z,100489.90
2023-05-01T17:34:27.465Z,100490.30
2023-05-01T17:36:57.667Z,100486.05
2023-05-01T17:39:27.739Z,100483.41
2023-05-01T17:41:55.539Z,100483.45
2023-05-01T17:44:23.265Z,100477.48
2023-05-01T17:46:51.043Z,100477.91
2023-05-01T17:49:32.955Z,100482.44
2023-05-01T17:52:00.688Z,100485.20
2023-05-01T17:54:30.024Z,100487.13
2023-05-01T17:56:58.377Z,100484.77
2023-05-01T17:59:30.535Z,100485.98
2023-05-01T18:01:58.470Z,100488.86
2023-05-01T18:04:26.319Z,100486.02
2023-05-01T18:06:56.262Z,100485.05
2023-05-01T18:09:24.228Z,100487.86
2023-05-01T18:11:51.917Z,100487.98
2023-05-01T18:14:19.816Z,100486.03
2023-05-01T18:16:47.557Z,100489.14
2023-05-01T18:19:41.022Z,100490.02
2023-05-01T18:22:08.650Z,100486.40
2023-05-01T18:24:36.269Z,100488.30
2023-05-01T18:27:28.723Z,100486.27
2023-05-01T18:29:56.834Z,100487.54
2023-05-01T18:32:32.909Z,100490.71
2023-05-01T18:35:08.021Z,100488.13
2023-05-01T18:37:35.684Z,100489.70
2023-05-01T18:40:05.621Z,100488.20
2023-05-01T18:42:33.619Z,100490.31
2023-05-01T18:45:01.973Z,100488.48
2023-05-01T18:47:29.709Z,100491.29
2023-05-01T18:49:57.597Z,100487.26
2023-05-01T18:52:25.573Z,100487.88
2023-05-01T18:54:53.262Z,100487.73
2023-05-01T18:57:21.026Z,100489.19
2023-05-01T18:59:48.770Z,100489.23
2023-05-01T19:02:16.509Z,100488.98
2023-05-01T19:04:56.539Z,100486.98
2023-05-01T19:07:26.362Z,100482.43
2023-05-01T19:09:54.261Z,100480.27
2023-05-01T19:12:27.526Z,100478.91
2023-05-01T19:14:55.360Z,100475.19
2023-05-01T19:17:22.965Z,100475.95
2023-05-01T19:19:50.665Z,100473.18
2023-05-01T19:22:18.416Z,100466.56
2023-05-01T19:24:46.159Z,100470.63
2023-05-01T19:27:13.854Z,100467.88
2023-05-01T19:29:41.553Z,100464.86
2023-05-01T19:32:10.723Z,100461.92
2023-05-01T19:34:38.839Z,100452.65
2023-05-01T19:37:06.568Z,100445.94
2023-05-01T19:39:34.350Z,100447.14
2023-05-01T19:42:03.933Z,100445.24
2023-05-01T19:44:31.592Z,100449.73
2023-05-01T19:46:59.351Z,100453.75
2023-05-01T19:49:27.661Z,100452.22
2023-05-01T19:51:57.481Z,100450.64
2023-05-01T19:54:28.990Z,100447.80
2023-05-01T19:56:57.200Z,100443.21
2023-05-01T19:59:24.952Z,100440.61
2023-05-01T20:01:52.744Z,100438.58
2023-05-01T20:04:23.082Z,100439.02
2023-05-01T20:06:51.541Z,100436.55
2023-05-01T20:09:19.429Z,100437.80
2023-05-01T20:11:47.076Z,100434.73
2023-05-01T20:14:15.176Z,100436.88
2023-05-01T20:21:02.138Z,100434.13
2023-05-01T20:23:29.896Z,100434.42
2023-05-01T20:25:57.608Z,100427.13
2023-05-01T20:28:25.873Z,100430.69
2023-05-01T20:30:53.669Z,100432.45
2023-05-01T20:33:21.500Z,100434.42
2023-05-01T20:35:49.267Z,100432.07
2023-05-01T20:38:17.160Z,100431.30
2023-05-01T20:40:44.938Z,100434.58
2023-05-01T20:43:12.985Z,100429.73
2023-05-01T20:45:40.663Z,100433.92
2023-05-01T20:48:08.477Z,100430.41
2023-05-01T20:50:36.468Z,100430.62
2023-05-01T20:53:04.188Z,100431.24
2023-05-01T20:55:31.853Z,100430.95
2023-05-01T20:57:59.466Z,100430.41
2023-05-01T21:00:27.210Z,100433.88
2023-05-01T21:02:58.760Z,100431.60
2023-05-01T21:05:27.590Z,100430.08
2023-05-01T21:07:58.199Z,100430.95
2023-05-01T21:10:25.918Z,100430.49
2023-05-01T21:12:56.637Z,100430.73
2023-05-01T21:15:24.722Z,100435.05
2023-05-01T21:17:52.532Z,100437.08
2023-05-01T21:20:31.741Z,100435.35
2023-05-01T21:23:02.626Z,100436.28
2023-05-01T21:25:35.770Z,100439.11
2023-05-01T21:28:05.499Z,100436.41
2023-05-01T21:30:35.148Z,100435.66
2023-05-01T21:33:06.205Z,100438.66
2023-05-01T21:35:34.392Z,100437.11
2023-05-01T21:38:04.280Z,100434.40
2023-05-01T21:40:36.803Z,100433.69
2023-05-01T21:43:06.179Z,100434.95
2023-05-01T21:45:36.653Z,100434.53
2023-05-01T21:48:04.793Z,100437.41
2023-05-01T21:50:36.299Z,100434.17
2023-05-01T21:53:05.972Z,100436.17
2023-05-01T21:55:33.808Z,100436.59
2023-05-01T21:58:02.253Z,100434.97
2023-05-01T22:00:30.690Z,100434.23
2023-05-01T22:02:58.681Z,100430.29
2023-05-01T22:05:30.986Z,100427.06
2023-05-01T22:07:59.115Z,100423.77
2023-05-01T22:10:26.772Z,100420.54
2023-05-01T22:12:54.445Z,100414.69
2023-05-01T22:15:22.025Z,100414.52
2023-05-01T22:17:49.772Z,100413.23
2023-05-01T22:20:17.688Z,100423.38
2023-05-01T22:22:45.357Z,100420.34
2023-05-01T22:25:13.094Z,100419.80
2023-05-01T22:27:40.859Z,100416.04
2023-05-01T22:30:08.864Z,100415.88
2023-05-01T22:32:36.796Z,100415.59
2023-05-01T22:35:04.920Z,100411.27
2023-05-01T22:37:32.604Z,100409.66
2023-05-01T22:40:05.771Z,100414.53
2023-05-01T22:42:33.404Z,100410.98
2023-05-01T22:45:01.180Z,100410.48
2023-05-01T22:47:28.875Z,100410.31
2023-05-01T22:49:56.557Z,100406.56
2023-05-01T22:52:24.237Z,100404.79
2023-05-01T22:54:52.694Z,100401.44
2023-05-01T22:57:20.445Z,100397.01
2023-05-01T22:59:49.021Z,100394.88
2023-05-01T23:02:17.705Z,100394.55
2023-05-01T23:04:46.061Z,100396.06
2023-05-01T23:07:14.081Z,100393.46
2023-05-01T23:09:42.144Z,100393.17
2023-05-01T23:12:18.258Z,100388.40
2023-05-01T23:14:47.031Z,100387.26
2023-05-01T23:17:15.312Z,100383.61
2023-05-01T23:19:46.255Z,100385.42
2023-05-01T23:22:14.162Z,100384.38
2023-05-01T23:24:44.960Z,100378.37
2023-05-01T23:27:14.958Z,100376.91
2023-05-01T23:29:51.603Z,100377.16
2023-05-01T23:32:26.421Z,100375.51
2023-05-01T23:34:55.973Z,100375.71
2023-05-01T23:37:23.685Z,100374.19
2023-05-01T23:39:53.711Z,100373.54
2023-05-01T23:42:22.686Z,100372.71
2023-05-01T23:44:51.281Z,100368.74
2023-05-01T23:47:19.511Z,100367.06
2023-05-01T23:49:47.938Z,100363.54
2023-05-01T23:52:16.369Z,100365.89
2023-05-01T23:54:43.994Z,100364.81
2023-05-01T23:57:11.826Z,100360.13
2023-05-01T23:59:39.882Z,100360.71
